Mason, Nevada
Current Conditions -  °F | °C
As of 4:15 PM on Wednesday 22 Oct 2014 (Local Time) from KMEV Reporting Station
Clear Clear  
Wind Chill: 72°   Ceiling: Unl
Heat Index: 72°   Visibility: 10mi
Dew Point: 30°   Wind: 5mph
Humidity: 22%   Direction: 230°SW
Pressure: 30.07"   Gusts: NA
Location:  38.8785°N, 119.096°W
Report Text: KMEV 222315Z AUTO 23004KT 10SM CLR 22/M01 A3007 RMK AO2
Loading
Personal Weather Stations






























Interactive Weather Map
Tropical Storm Tracking
New forecast layout! Learn more

10-Day Weather Forecast

Advertisements
Track Severe Weather on mobile